createdAt,value
2023-05-19T00:00:28.776Z,100.00
2023-05-19T00:03:31.899Z,100.00
2023-05-19T00:06:34.440Z,100.00
2023-05-19T00:09:36.815Z,100.00
2023-05-19T00:12:38.841Z,100.00
2023-05-19T00:15:41.241Z,100.00
2023-05-19T00:18:43.645Z,100.00
2023-05-19T00:21:45.689Z,100.00
2023-05-19T00:24:47.661Z,100.00
2023-05-19T00:27:49.546Z,100.00
2023-05-19T00:30:52.015Z,100.00
2023-05-19T00:33:54.006Z,100.00
2023-05-19T00:36:55.964Z,100.00
2023-05-19T00:39:59.267Z,100.00
2023-05-19T00:43:01.339Z,100.00
2023-05-19T00:46:03.875Z,99.70
2023-05-19T00:49:05.865Z,99.75
2023-05-19T00:52:07.898Z,99.66
2023-05-19T00:55:10.690Z,99.69
2023-05-19T00:58:14.069Z,99.59
2023-05-19T01:01:17.206Z,99.28
2023-05-19T01:04:21.780Z,98.57
2023-05-19T01:07:23.910Z,98.26
2023-05-19T01:10:25.890Z,98.73
2023-05-19T01:13:28.901Z,98.77
2023-05-19T01:16:37.700Z,98.64
2023-05-19T01:20:11.186Z,98.52
2023-05-19T01:23:24.081Z,98.65
2023-05-19T01:26:44.754Z,98.60
2023-05-19T01:29:49.772Z,98.32
2023-05-19T01:32:56.527Z,98.72
2023-05-19T01:35:59.853Z,98.43
2023-05-19T01:39:02.556Z,98.17
2023-05-19T01:42:04.943Z,98.12
2023-05-19T01:45:11.412Z,98.18
2023-05-19T01:48:14.982Z,98.24
2023-05-19T01:51:17.216Z,98.24
2023-05-19T01:54:19.241Z,98.13
2023-05-19T01:57:51.981Z,97.75
2023-05-19T02:01:16.709Z,97.90
2023-05-19T02:04:40.397Z,97.79
2023-05-19T02:07:51.036Z,97.87
2023-05-19T02:11:11.794Z,97.34
2023-05-19T02:14:25.081Z,97.48
2023-05-19T02:17:33.302Z,97.37
2023-05-19T02:20:35.436Z,97.18
2023-05-19T02:23:37.522Z,97.20
2023-05-19T02:26:39.419Z,97.04
2023-05-19T02:29:41.576Z,96.76
2023-05-19T02:32:46.919Z,96.43
2023-05-19T02:35:49.156Z,96.71
2023-05-19T02:38:51.368Z,96.71
2023-05-19T02:41:53.476Z,96.77
2023-05-19T02:44:55.557Z,96.55
2023-05-19T02:47:57.586Z,96.68
2023-05-19T02:50:59.558Z,96.80
2023-05-19T02:54:01.536Z,96.72
2023-05-19T02:57:03.740Z,96.67
2023-05-19T03:00:06.960Z,97.12
2023-05-19T03:03:10.556Z,97.51
2023-05-19T03:06:13.328Z,98.16
2023-05-19T03:09:15.345Z,98.74
2023-05-19T03:12:17.322Z,99.32
2023-05-19T03:15:19.477Z,99.63
2023-05-19T03:18:21.551Z,100.00
2023-05-19T03:21:23.785Z,100.00
2023-05-19T03:24:25.956Z,100.00
2023-05-19T03:27:27.950Z,100.00
2023-05-19T03:30:30.157Z,100.00
2023-05-19T03:33:32.346Z,100.00
2023-05-19T03:36:40.037Z,100.00
2023-05-19T03:39:42.151Z,100.00
2023-05-19T03:42:44.125Z,100.00
2023-05-19T03:45:46.424Z,100.00
2023-05-19T03:48:48.480Z,100.00
2023-05-19T03:51:50.624Z,100.00
2023-05-19T03:54:53.120Z,100.00
2023-05-19T03:57:55.076Z,100.00
2023-05-19T04:00:57.135Z,100.00
2023-05-19T04:03:59.206Z,100.00
2023-05-19T04:07:01.397Z,100.00
2023-05-19T04:10:06.914Z,100.00
2023-05-19T04:13:09.130Z,100.00
2023-05-19T04:16:11.393Z,100.00
2023-05-19T04:19:13.461Z,100.00
2023-05-19T04:22:15.523Z,100.00
2023-05-19T04:25:17.524Z,100.00
2023-05-19T04:28:19.499Z,100.00
2023-05-19T04:31:21.919Z,100.00
2023-05-19T04:34:23.922Z,100.00
2023-05-19T04:37:26.557Z,100.00
2023-05-19T04:40:31.499Z,100.00
2023-05-19T04:43:34.430Z,100.00
2023-05-19T04:46:36.667Z,100.00
2023-05-19T04:49:39.096Z,100.00
2023-05-19T04:52:42.601Z,99.98
2023-05-19T04:55:45.413Z,99.88
2023-05-19T04:58:47.401Z,100.00
2023-05-19T05:01:49.342Z,100.00
2023-05-19T05:04:51.344Z,100.00
2023-05-19T05:07:54.278Z,99.86
2023-05-19T05:10:56.622Z,99.50
2023-05-19T05:13:58.791Z,99.21
2023-05-19T05:17:01.673Z,98.88
2023-05-19T05:20:06.250Z,99.00
2023-05-19T05:23:09.768Z,98.57
2023-05-19T05:26:19.584Z,98.03
2023-05-19T05:29:21.607Z,97.71
2023-05-19T05:32:23.884Z,96.97
2023-05-19T05:35:26.370Z,96.69
2023-05-19T05:38:28.417Z,95.84
2023-05-19T05:41:35.328Z,95.06
2023-05-19T05:44:37.610Z,95.38
2023-05-19T05:47:41.534Z,95.33
2023-05-19T05:50:44.761Z,94.64
2023-05-19T05:53:52.515Z,93.72
2023-05-19T05:56:54.789Z,93.48
2023-05-19T05:59:57.425Z,92.69
2023-05-19T06:02:59.602Z,93.48
2023-05-19T06:06:02.053Z,94.16
2023-05-19T06:09:04.872Z,93.17
2023-05-19T06:12:07.180Z,93.40
2023-05-19T06:15:09.282Z,92.69
2023-05-19T06:18:11.315Z,91.54
2023-05-19T06:21:13.706Z,92.13
2023-05-19T06:24:15.717Z,91.84
2023-05-19T06:27:17.673Z,91.22
2023-05-19T06:30:19.698Z,91.11
2023-05-19T06:33:21.758Z,90.25
2023-05-19T06:36:23.724Z,92.27
2023-05-19T06:39:26.397Z,92.59
2023-05-19T06:42:28.419Z,92.69
2023-05-19T06:45:30.572Z,92.32
2023-05-19T06:48:32.566Z,91.57
2023-05-19T06:51:35.476Z,91.32
2023-05-19T06:54:37.543Z,91.58
2023-05-19T06:57:39.510Z,90.97
2023-05-19T07:00:41.484Z,91.40
2023-05-19T07:03:43.602Z,91.85
2023-05-19T07:06:45.662Z,92.30
2023-05-19T07:09:47.651Z,92.35
2023-05-19T07:12:49.698Z,92.23
2023-05-19T07:15:55.915Z,92.12
2023-05-19T07:18:58.075Z,91.64
2023-05-19T07:22:00.093Z,91.36
2023-05-19T07:25:02.181Z,90.91
2023-05-19T07:28:04.314Z,90.79
2023-05-19T07:31:06.714Z,91.83
2023-05-19T07:34:08.968Z,91.38
2023-05-19T07:37:10.962Z,91.08
2023-05-19T07:40:13.268Z,90.37
2023-05-19T07:43:15.279Z,89.64
2023-05-19T07:46:17.558Z,89.65
2023-05-19T07:49:19.593Z,88.75
2023-05-19T07:52:21.607Z,87.85
2023-05-19T07:55:23.570Z,87.02
2023-05-19T07:58:25.546Z,86.46
2023-05-19T08:01:28.390Z,85.86
2023-05-19T08:04:30.344Z,86.16
2023-05-19T08:07:32.438Z,85.62
2023-05-19T08:10:34.738Z,85.54
2023-05-19T08:13:36.937Z,85.05
2023-05-19T08:16:39.013Z,86.57
2023-05-19T08:19:41.020Z,86.51
2023-05-19T08:22:43.146Z,84.98
2023-05-19T08:25:45.735Z,85.67
2023-05-19T08:28:47.728Z,85.82
2023-05-19T08:31:49.690Z,84.93
2023-05-19T08:34:51.723Z,83.75
2023-05-19T08:37:53.722Z,85.22
2023-05-19T08:40:58.142Z,83.64
2023-05-19T08:44:00.235Z,82.48
2023-05-19T08:47:05.497Z,82.95
2023-05-19T08:50:10.799Z,82.24
2023-05-19T08:53:33.271Z,83.25
2023-05-19T08:56:36.848Z,82.75
2023-05-19T08:59:40.006Z,83.45
2023-05-19T09:02:50.644Z,84.13
2023-05-19T09:06:04.461Z,83.59
2023-05-19T09:09:07.235Z,82.30
2023-05-19T09:12:13.920Z,81.31
2023-05-19T09:15:19.387Z,82.27
2023-05-19T09:18:21.436Z,81.21
2023-05-19T09:21:31.399Z,79.26
2023-05-19T09:24:34.640Z,79.61
2023-05-19T09:27:36.696Z,80.41
2023-05-19T09:30:39.493Z,76.08
2023-05-19T09:33:45.637Z,77.15
2023-05-19T09:36:54.805Z,76.10
2023-05-19T09:39:57.320Z,73.69
2023-05-19T09:42:59.366Z,72.48
2023-05-19T09:46:08.370Z,73.89
2023-05-19T09:49:10.567Z,73.65
2023-05-19T09:52:16.417Z,72.24
2023-05-19T09:55:20.237Z,73.12
2023-05-19T09:58:24.350Z,71.74
2023-05-19T10:01:26.817Z,70.21
2023-05-19T10:04:30.615Z,71.45
2023-05-19T10:07:33.849Z,70.21
2023-05-19T10:10:37.542Z,70.33
2023-05-19T10:13:40.194Z,70.93
2023-05-19T10:16:42.505Z,69.60
2023-05-19T10:19:45.363Z,70.14
2023-05-19T10:22:47.983Z,66.72
2023-05-19T10:25:53.085Z,63.57
2023-05-19T10:28:56.828Z,66.13
2023-05-19T10:32:04.393Z,69.54
2023-05-19T10:35:27.711Z,71.41
2023-05-19T10:38:48.387Z,68.66
2023-05-19T10:42:16.126Z,65.75
2023-05-19T10:45:22.509Z,64.55
2023-05-19T10:48:24.712Z,63.54
2023-05-19T10:51:34.072Z,66.17
2023-05-19T10:54:46.405Z,66.51
2023-05-19T10:57:57.109Z,66.40
2023-05-19T11:01:01.075Z,64.60
2023-05-19T11:04:09.207Z,63.34
2023-05-19T11:07:15.702Z,65.76
2023-05-19T11:10:23.767Z,64.29
2023-05-19T11:13:28.518Z,63.77
2023-05-19T11:16:32.761Z,61.57
2023-05-19T11:19:36.069Z,61.94
2023-05-19T11:22:38.997Z,62.95
2023-05-19T11:25:42.644Z,62.38
2023-05-19T11:28:45.612Z,63.05
2023-05-19T11:31:48.871Z,61.62
2023-05-19T11:34:51.592Z,64.08
2023-05-19T11:37:54.983Z,65.01
2023-05-19T11:40:57.649Z,65.37
2023-05-19T11:43:59.648Z,66.88
2023-05-19T11:47:02.216Z,67.55
2023-05-19T11:50:05.100Z,68.25
2023-05-19T11:53:08.345Z,66.89
2023-05-19T11:56:12.187Z,66.42
2023-05-19T11:59:14.275Z,67.19
2023-05-19T12:02:21.192Z,68.00
2023-05-19T12:05:26.130Z,67.74
2023-05-19T12:08:29.669Z,67.79
2023-05-19T12:11:31.997Z,68.19
2023-05-19T12:14:34.663Z,68.22
2023-05-19T12:17:36.694Z,69.09
2023-05-19T12:20:39.356Z,68.24
2023-05-19T12:23:42.544Z,68.17
2023-05-19T12:26:44.510Z,67.38
2023-05-19T12:29:53.990Z,67.98
2023-05-19T12:32:57.911Z,65.35
2023-05-19T12:36:00.226Z,64.93
2023-05-19T12:39:04.915Z,63.28
2023-05-19T12:42:11.588Z,65.21
2023-05-19T12:45:13.604Z,65.15
2023-05-19T12:48:16.207Z,65.71
2023-05-19T12:51:20.071Z,64.70
2023-05-19T12:54:22.687Z,63.38
2023-05-19T12:57:26.231Z,60.95
2023-05-19T13:00:31.280Z,61.09
2023-05-19T13:03:33.440Z,62.10
2023-05-19T13:06:35.477Z,63.55
2023-05-19T13:09:38.510Z,63.41
2023-05-19T13:12:40.432Z,63.41
2023-05-19T13:15:48.868Z,63.93
2023-05-19T13:18:51.597Z,62.68
2023-05-19T13:21:53.618Z,63.67
2023-05-19T13:24:58.932Z,63.69
2023-05-19T13:28:03.993Z,63.93
2023-05-19T13:31:06.056Z,64.75
2023-05-19T13:34:08.160Z,65.33
2023-05-19T13:37:11.592Z,65.65
2023-05-19T13:40:13.886Z,66.34
2023-05-19T13:43:15.858Z,67.11
2023-05-19T13:46:19.250Z,67.81
2023-05-19T13:49:24.146Z,68.01
2023-05-19T13:52:27.505Z,68.23
2023-05-19T13:55:30.933Z,69.23
2023-05-19T13:58:33.003Z,68.43
2023-05-19T14:01:35.098Z,69.15
2023-05-19T14:04:38.625Z,68.24
2023-05-19T14:07:40.623Z,67.43
2023-05-19T14:10:43.494Z,67.46
2023-05-19T14:13:46.278Z,67.39
2023-05-19T14:16:48.443Z,67.37
2023-05-19T14:19:50.358Z,66.14
2023-05-19T14:22:52.399Z,67.75
2023-05-19T14:25:54.415Z,67.68
2023-05-19T14:28:57.211Z,66.83
2023-05-19T14:31:59.260Z,66.27
2023-05-19T14:35:01.556Z,66.89
2023-05-19T14:38:03.652Z,66.76
2023-05-19T14:41:06.956Z,67.01
2023-05-19T14:44:08.971Z,66.90
2023-05-19T14:47:12.572Z,67.13
2023-05-19T14:50:14.758Z,67.00
2023-05-19T14:53:17.052Z,67.88
2023-05-19T14:56:19.066Z,67.91
2023-05-19T14:59:21.819Z,67.99
2023-05-19T15:02:23.887Z,68.19
2023-05-19T15:05:26.074Z,68.14
2023-05-19T15:08:28.010Z,68.25
2023-05-19T15:11:30.335Z,68.29
2023-05-19T15:14:32.278Z,68.18
2023-05-19T15:17:34.305Z,68.36
2023-05-19T15:20:36.427Z,68.67
2023-05-19T15:23:38.628Z,69.39
2023-05-19T15:26:40.620Z,69.85
2023-05-19T15:29:42.712Z,69.63
2023-05-19T15:32:44.704Z,69.53
2023-05-19T15:35:47.822Z,69.57
2023-05-19T15:38:49.821Z,69.91
2023-05-19T15:41:51.917Z,70.20
2023-05-19T15:44:53.971Z,70.04
2023-05-19T15:47:56.229Z,70.33
2023-05-19T15:50:59.198Z,70.38
2023-05-19T15:54:01.177Z,70.31
2023-05-19T15:57:03.139Z,69.97
2023-05-19T16:00:05.628Z,70.18
2023-05-19T16:03:08.005Z,69.81
2023-05-19T16:06:10.070Z,69.85
2023-05-19T16:09:12.161Z,70.29
2023-05-19T16:12:14.445Z,70.58
2023-05-19T16:15:16.538Z,70.96
2023-05-19T16:18:18.767Z,71.02
2023-05-19T16:21:21.538Z,71.17
2023-05-19T16:24:23.485Z,71.32
2023-05-19T16:27:25.597Z,72.30
2023-05-19T16:30:28.165Z,71.88
2023-05-19T16:33:30.229Z,72.22
2023-05-19T16:36:32.568Z,72.99
2023-05-19T16:39:37.308Z,73.54
2023-05-19T16:42:39.567Z,73.33
2023-05-19T16:45:41.625Z,73.42
2023-05-19T16:48:43.898Z,73.99
2023-05-19T16:51:47.555Z,73.75
2023-05-19T16:54:50.969Z,73.99
2023-05-19T16:57:53.070Z,74.47
2023-05-19T17:00:55.309Z,74.95
2023-05-19T17:03:57.427Z,75.58
2023-05-19T17:06:59.446Z,75.29
2023-05-19T17:10:01.431Z,75.83
2023-05-19T17:13:03.343Z,75.96
2023-05-19T17:16:05.672Z,75.90
2023-05-19T17:19:07.726Z,76.10
2023-05-19T17:22:09.804Z,76.40
2023-05-19T17:25:11.868Z,76.63
2023-05-19T17:28:13.934Z,76.83
2023-05-19T17:31:15.985Z,77.31
2023-05-19T17:34:17.964Z,77.84
2023-05-19T17:37:23.495Z,77.99
2023-05-19T17:40:25.576Z,78.47
2023-05-19T17:43:27.715Z,78.56
2023-05-19T17:46:34.722Z,79.01
2023-05-19T17:49:36.843Z,79.43
2023-05-19T17:52:40.574Z,79.39
2023-05-19T17:56:02.264Z,80.11
2023-05-19T17:59:04.593Z,80.64
2023-05-19T18:02:07.907Z,80.94
2023-05-19T18:05:10.737Z,81.52
2023-05-19T18:08:13.690Z,82.91
2023-05-19T18:11:16.624Z,82.74
2023-05-19T18:14:18.657Z,83.45
2023-05-19T18:17:20.679Z,84.13
2023-05-19T18:20:22.659Z,84.81
2023-05-19T18:23:24.703Z,85.36
2023-05-19T18:26:26.756Z,84.74
2023-05-19T18:29:28.712Z,85.66
2023-05-19T18:32:30.752Z,85.47
2023-05-19T18:35:32.974Z,85.64
2023-05-19T18:38:35.080Z,85.78
2023-05-19T18:41:37.789Z,85.86
2023-05-19T18:44:39.954Z,86.42
2023-05-19T18:47:42.150Z,86.61
2023-05-19T18:50:44.801Z,86.56
2023-05-19T18:53:49.495Z,87.30
2023-05-19T18:56:51.553Z,87.48
2023-05-19T18:59:53.751Z,87.93
2023-05-19T19:02:55.787Z,88.37
2023-05-19T19:05:59.169Z,88.86
2023-05-19T19:09:01.132Z,88.88
2023-05-19T19:12:04.642Z,89.03
2023-05-19T19:15:07.218Z,88.42
2023-05-19T19:18:09.438Z,88.73
2023-05-19T19:21:11.533Z,89.08
2023-05-19T19:24:13.864Z,89.35
2023-05-19T19:27:20.944Z,89.85
2023-05-19T19:30:22.962Z,90.07
2023-05-19T19:33:25.054Z,90.58
2023-05-19T19:36:27.165Z,91.10
2023-05-19T19:39:29.210Z,91.32
2023-05-19T19:42:31.945Z,92.02
2023-05-19T19:45:34.990Z,92.31
2023-05-19T19:48:37.065Z,92.85
2023-05-19T19:51:38.967Z,93.05
2023-05-19T19:54:41.057Z,93.73
2023-05-19T19:57:45.708Z,94.02
2023-05-19T20:00:47.721Z,94.33
2023-05-19T20:03:49.917Z,94.98
2023-05-19T20:06:51.996Z,95.27
2023-05-19T20:09:55.967Z,95.57
2023-05-19T20:12:59.339Z,95.75
2023-05-19T20:16:01.566Z,96.05
2023-05-19T20:19:04.095Z,96.26
2023-05-19T20:22:06.599Z,96.53
2023-05-19T20:25:09.083Z,96.88
2023-05-19T20:28:11.029Z,97.23
2023-05-19T20:31:13.008Z,97.32
2023-05-19T20:34:15.031Z,96.19
2023-05-19T20:37:17.520Z,96.68
2023-05-19T20:40:19.452Z,96.59
2023-05-19T20:43:21.543Z,97.81
2023-05-19T20:46:23.581Z,98.41
2023-05-19T20:49:25.529Z,98.50
2023-05-19T20:52:27.583Z,98.64
2023-05-19T20:55:29.619Z,98.93
2023-05-19T20:58:32.174Z,99.10
2023-05-19T21:01:34.268Z,99.22
2023-05-19T21:04:36.520Z,98.51
2023-05-19T21:07:38.533Z,98.62
2023-05-19T21:10:41.062Z,98.19
2023-05-19T21:13:43.504Z,98.30
2023-05-19T21:16:48.971Z,98.30
2023-05-19T21:19:52.820Z,98.81
2023-05-19T21:22:55.700Z,98.77
2023-05-19T21:25:58.873Z,98.90
2023-05-19T21:29:00.873Z,98.76
2023-05-19T21:32:02.885Z,99.00
2023-05-19T21:35:06.215Z,98.99
2023-05-19T21:38:21.962Z,99.34
2023-05-19T21:41:25.213Z,99.22
2023-05-19T21:44:27.300Z,98.91
2023-05-19T21:47:29.265Z,99.11
2023-05-19T21:50:31.392Z,99.51
2023-05-19T21:53:33.554Z,99.10
2023-05-19T21:56:35.630Z,99.22
2023-05-19T21:59:37.745Z,99.28
2023-05-19T22:02:40.581Z,99.40
2023-05-19T22:05:42.590Z,99.18
2023-05-19T22:08:44.626Z,99.02
2023-05-19T22:11:46.541Z,98.92
2023-05-19T22:14:48.581Z,98.98
2023-05-19T22:17:50.711Z,98.93
2023-05-19T22:20:52.696Z,99.06
2023-05-19T22:23:54.788Z,98.99
2023-05-19T22:26:56.798Z,99.21
2023-05-19T22:29:59.894Z,99.38
2023-05-19T22:33:02.358Z,99.67
2023-05-19T22:36:04.472Z,99.62
2023-05-19T22:39:06.507Z,99.50
2023-05-19T22:42:08.617Z,99.54
2023-05-19T22:45:10.936Z,99.02
2023-05-19T22:48:12.954Z,99.51
2023-05-19T22:51:14.967Z,99.77
2023-05-19T22:54:16.978Z,99.94
2023-05-19T22:57:19.481Z,100.00
2023-05-19T23:00:21.398Z,100.00
2023-05-19T23:03:23.435Z,100.00
2023-05-19T23:06:25.386Z,100.00
2023-05-19T23:09:27.618Z,100.00
2023-05-19T23:12:29.601Z,100.00
2023-05-19T23:15:31.769Z,100.00
2023-05-19T23:18:33.819Z,100.00
2023-05-19T23:21:36.196Z,100.00
2023-05-19T23:24:38.090Z,100.00
2023-05-19T23:27:40.311Z,100.00
2023-05-19T23:30:42.337Z,100.00
2023-05-19T23:33:44.253Z,100.00
2023-05-19T23:36:46.504Z,100.00
2023-05-19T23:39:48.549Z,100.00
2023-05-19T23:42:50.517Z,100.00
2023-05-19T23:45:52.504Z,100.00
2023-05-19T23:48:54.429Z,100.00
2023-05-19T23:51:56.506Z,100.00
2023-05-19T23:54:58.465Z,100.00
2023-05-19T23:58:00.723Z,100.00
